Time;durP1;ratioP1;P1;durP2;ratioP2;P2;SDS_P1;SDS_P2;PMS_P1;PMS_P2;Temp;Humidity;BMP_temperature;BMP_pressure;BME280_temperature;BME280_humidity;BME280_pressure;Samples;Min_cycle;Max_cycle;Signal;HPM_P1;HPM_P2
2023/03/23 00:01:26;;;;;;;7.70;4.22;;;9.00;99.90;;;;;;5072745;28;20055;-16
2023/03/23 00:03:56;;;;;;;10.48;5.05;;;9.60;99.90;;;;;;5072535;28;20055;-17
2023/03/23 00:06:26;;;;;;;11.25;5.95;;;9.60;99.90;;;;;;5072649;28;20097;-18
2023/03/23 00:08:59;;;;;;;11.07;7.55;;;10.10;99.90;;;;;;5071177;28;20482;-18
2023/03/23 00:11:30;;;;;;;14.20;9.00;;;9.10;99.90;;;;;;5072685;28;20078;-18
2023/03/23 00:13:57;;;;;;;11.63;7.80;;;10.10;99.90;;;;;;5073101;28;20036;-19
2023/03/23 00:16:37;;;;;;;11.60;7.35;;;9.50;99.90;;;;;;5072524;28;20124;-18
2023/03/23 00:19:08;;;;;;;18.73;10.30;;;10.30;99.90;;;;;;5072843;28;20083;-18
2023/03/23 00:21:38;;;;;;;15.32;9.20;;;9.80;99.90;;;;;;5072439;28;20055;-18
2023/03/23 00:24:15;;;;;;;8.65;6.20;;;9.40;99.90;;;;;;5072465;28;20158;-18
2023/03/23 00:26:43;;;;;;;9.63;6.22;;;9.40;99.90;;;;;;5072488;28;20049;-18
2023/03/23 00:29:15;;;;;;;11.13;6.63;;;10.40;99.90;;;;;;5072459;28;20040;-19
2023/03/23 00:31:46;;;;;;;9.98;6.60;;;9.40;99.90;;;;;;5072940;28;20084;-19
2023/03/23 00:34:18;;;;;;;10.68;7.60;;;9.50;99.90;;;;;;5073225;28;20043;-19
2023/03/23 00:36:48;;;;;;;12.80;7.28;;;9.60;99.90;;;;;;5072329;28;20098;-20
2023/03/23 00:39:16;;;;;;;13.43;8.98;;;9.60;99.90;;;;;;5072515;28;20047;-19
2023/03/23 00:41:43;;;;;;;16.55;11.30;;;9.50;99.90;;;;;;5028022;28;1275758;-20
2023/03/23 00:44:09;;;;;;;19.73;14.27;;;9.50;99.90;;;;;;5071699;28;20420;-20
2023/03/23 00:46:44;;;;;;;18.15;13.30;;;9.80;99.90;;;;;;5073118;28;20040;-20
2023/03/23 00:49:18;;;;;;;23.08;14.27;;;9.50;99.90;;;;;;5073803;28;20044;-20
2023/03/23 00:51:45;;;;;;;25.88;17.50;;;10.40;99.90;;;;;;5071995;28;20471;-20
2023/03/23 00:54:11;;;;;;;26.90;16.95;;;10.20;99.90;;;;;;5073107;28;20041;-20
2023/03/23 00:56:38;;;;;;;33.03;22.35;;;10.60;99.90;;;;;;5073038;28;20086;-20
2023/03/23 00:59:04;;;;;;;29.20;21.42;;;10.20;99.90;;;;;;5073094;28;20548;-20
2023/03/23 01:01:30;;;;;;;33.55;23.83;;;9.70;99.90;;;;;;5073095;28;20052;-19
2023/03/23 01:04:00;;;;;;;31.65;21.52;;;10.30;99.90;;;;;;5073029;28;20044;-19
2023/03/23 01:06:28;;;;;;;26.05;17.55;;;9.90;99.90;;;;;;5072916;28;20040;-19
2023/03/23 01:08:56;;;;;;;20.15;13.90;;;10.70;99.90;;;;;;5076478;28;20048;-19
2023/03/23 01:11:22;;;;;;;13.20;10.73;;;10.20;99.90;;;;;;5076513;28;20507;-19
2023/03/23 01:13:48;;;;;;;13.35;9.18;;;10.60;99.90;;;;;;5076398;28;20057;-19
2023/03/23 01:16:14;;;;;;;13.43;9.07;;;10.10;99.90;;;;;;5075242;28;20375;-19
2023/03/23 01:18:40;;;;;;;13.57;8.48;;;10.50;99.90;;;;;;5075668;28;20044;-19
2023/03/23 01:21:10;;;;;;;12.15;7.40;;;10.30;99.90;;;;;;5076335;28;20048;-19
2023/03/23 01:23:37;;;;;;;9.15;6.10;;;9.60;99.90;;;;;;5075958;28;20044;-19
2023/03/23 01:26:05;;;;;;;10.95;5.78;;;9.90;99.90;;;;;;5075212;28;20090;-19
2023/03/23 01:28:31;;;;;;;12.25;6.13;;;9.70;99.90;;;;;;5075865;28;20044;-19
2023/03/23 01:31:05;;;;;;;11.13;5.85;;;10.10;99.90;;;;;;5076427;28;20102;-19
2023/03/23 01:33:31;;;;;;;9.35;5.28;;;9.40;99.90;;;;;;5076077;28;20040;-19
2023/03/23 01:35:58;;;;;;;11.57;6.22;;;10.00;99.90;;;;;;5076030;28;20123;-19
2023/03/23 01:38:24;;;;;;;10.73;5.78;;;9.60;99.90;;;;;;5074772;28;20360;-19
2023/03/23 01:40:50;;;;;;;11.52;6.70;;;9.40;99.90;;;;;;5074766;28;20059;-19
2023/03/23 01:43:16;;;;;;;10.85;7.55;;;10.00;99.90;;;;;;5075903;28;20482;-19
2023/03/23 01:45:42;;;;;;;12.25;7.75;;;9.90;99.90;;;;;;5076455;28;20123;-19
2023/03/23 01:48:16;;;;;;;13.10;8.63;;;9.60;99.90;;;;;;5074839;28;20140;-19
2023/03/23 01:50:56;;;;;;;14.18;10.27;;;9.50;99.90;;;;;;5076649;28;20072;-19
2023/03/23 01:53:24;;;;;;;13.52;10.27;;;9.70;99.90;;;;;;5076280;28;20036;-19
2023/03/23 01:55:53;;;;;;;15.52;10.30;;;10.30;99.90;;;;;;5076294;28;20154;-19
2023/03/23 01:58:29;;;;;;;17.45;10.25;;;9.90;99.90;;;;;;5075630;28;20107;-19
2023/03/23 02:00:58;;;;;;;13.18;8.73;;;9.90;99.90;;;;;;5075637;28;20075;-19
2023/03/23 02:03:25;;;;;;;21.38;10.63;;;10.30;99.90;;;;;;5057912;28;20051;-19
2023/03/23 02:05:51;;;;;;;16.52;10.88;;;10.00;99.90;;;;;;5075338;28;20040;-19
2023/03/23 02:08:18;;;;;;;16.38;10.73;;;10.40;99.90;;;;;;5075416;28;20044;-19
2023/03/23 02:10:44;;;;;;;16.50;9.70;;;10.30;99.90;;;;;;5075398;28;20041;-19
2023/03/23 02:13:12;;;;;;;13.10;8.82;;;10.60;99.90;;;;;;5075208;28;20052;-19
2023/03/23 02:16:00;;;;;;;18.25;8.20;;;10.20;99.90;;;;;;5075277;28;20486;-19
2023/03/23 02:18:28;;;;;;;13.43;6.80;;;10.30;99.90;;;;;;5075016;28;20040;-19
2023/03/23 02:21:14;;;;;;;12.30;7.05;;;10.60;99.90;;;;;;5058308;28;20501;-19
2023/03/23 02:23:43;;;;;;;12.43;7.72;;;10.70;99.90;;;;;;5074776;28;20055;-19
2023/03/23 02:26:37;;;;;;;13.55;7.63;;;10.30;99.90;;;;;;5074689;28;20398;-19
2023/03/23 02:29:11;;;;;;;;;;;10.70;99.90;;;;;;5076328;28;20049;-20
2023/03/23 02:32:18;;;;;;;10.98;5.80;;;10.50;99.90;;;;;;5075010;28;19916;-20
2023/03/23 02:35:07;;;;;;;13.52;5.80;;;10.40;99.90;;;;;;5074892;28;20474;-20
2023/03/23 02:37:44;;;;;;;11.55;6.53;;;10.60;99.90;;;;;;5075170;28;20037;-20
2023/03/23 02:40:25;;;;;;;13.35;6.72;;;10.70;99.90;;;;;;5073670;28;20057;-20
2023/03/23 02:42:54;;;;;;;11.38;6.40;;;10.60;99.90;;;;;;5075078;28;20044;-20
2023/03/23 02:45:22;;;;;;;6.55;5.05;;;10.30;99.90;;;;;;5075279;28;20055;-20
2023/03/23 02:47:51;;;;;;;13.90;6.18;;;10.50;99.90;;;;;;5075195;28;20401;-20
2023/03/23 02:50:20;;;;;;;13.15;6.90;;;10.50;99.90;;;;;;5075147;28;20076;-20
2023/03/23 02:52:48;;;;;;;8.55;4.78;;;10.40;99.90;;;;;;5074542;28;20047;-20
2023/03/23 02:55:15;;;;;;;11.55;5.70;;;10.50;99.90;;;;;;5074487;28;20079;-20
2023/03/23 02:57:43;;;;;;;8.63;4.95;;;10.40;99.90;;;;;;5074430;28;20044;-21
2023/03/23 03:00:14;;;;;;;13.10;5.53;;;10.50;99.90;;;;;;5074957;28;20037;-20
2023/03/23 03:02:52;;;;;;;9.68;5.82;;;10.50;99.90;;;;;;5075489;28;20472;-20
2023/03/23 03:05:23;;;;;;;7.53;5.03;;;10.40;99.90;;;;;;5074049;28;20377;-21
2023/03/23 03:07:52;;;;;;;10.52;5.90;;;10.50;99.90;;;;;;5074178;28;20082;-21
2023/03/23 03:10:24;;;;;;;7.22;4.65;;;10.40;99.90;;;;;;5074238;28;20036;-21
2023/03/23 03:13:08;;;;;;;10.45;4.05;;;10.40;99.90;;;;;;5074126;28;20041;-21
2023/03/23 03:15:48;;;;;;;9.10;5.32;;;10.60;99.90;;;;;;5075058;28;20348;-21
2023/03/23 03:18:24;;;;;;;8.35;4.88;;;10.50;99.90;;;;;;5074136;28;20094;-20
2023/03/23 03:21:00;;;;;;;7.47;4.43;;;10.20;99.90;;;;;;5074140;28;20044;-20
2023/03/23 03:23:28;;;;;;;11.65;5.03;;;10.20;99.90;;;;;;5074115;28;20041;-20
2023/03/23 03:25:57;;;;;;;9.65;4.95;;;10.40;99.90;;;;;;5074759;28;20097;-20
2023/03/23 03:28:26;;;;;;;16.17;5.88;;;10.30;99.90;;;;;;5074781;28;20040;-20
2023/03/23 03:31:00;;;;;;;14.07;5.00;;;10.20;99.90;;;;;;5073747;28;20048;-20
2023/03/23 03:33:30;;;;;;;11.32;4.60;;;10.60;99.90;;;;;;5073852;28;20083;-20
2023/03/23 03:35:59;;;;;;;9.35;5.50;;;10.40;99.90;;;;;;5073373;28;20087;-21
2023/03/23 03:38:26;;;;;;;9.05;4.50;;;10.20;99.90;;;;;;5072684;28;20040;-21
2023/03/23 03:40:53;;;;;;;10.93;4.20;;;10.10;99.90;;;;;;5073493;28;20056;-21
2023/03/23 03:43:18;;;;;;;9.40;4.85;;;10.10;99.90;;;;;;5073754;28;20044;-20
2023/03/23 03:45:44;;;;;;;8.70;4.68;;;10.70;99.90;;;;;;5055843;28;20062;-19
2023/03/23 03:48:11;;;;;;;6.90;4.18;;;10.60;99.90;;;;;;5055873;28;20040;-20
2023/03/23 03:50:37;;;;;;;10.63;5.50;;;10.30;99.90;;;;;;5073738;28;20045;-19
2023/03/23 03:53:02;;;;;;;10.32;4.78;;;10.60;99.90;;;;;;5073682;28;20055;-19
2023/03/23 03:55:35;;;;;;;7.28;3.67;;;10.30;99.90;;;;;;5073648;28;20040;-19
2023/03/23 03:58:02;;;;;;;8.07;3.03;;;10.50;99.90;;;;;;5073968;28;20133;-19
2023/03/23 04:00:29;;;;;;;11.55;4.15;;;9.60;99.90;;;;;;5072689;28;20048;-19
2023/03/23 04:02:55;;;;;;;10.93;5.10;;;9.50;99.90;;;;;;5073597;28;20078;-19
2023/03/23 04:05:22;;;;;;;12.10;6.53;;;10.30;99.90;;;;;;5072437;28;20044;-19
2023/03/23 04:07:51;;;;;;;6.68;3.85;;;10.30;99.90;;;;;;5072261;28;20072;-19
2023/03/23 04:10:21;;;;;;;9.32;4.60;;;10.20;99.90;;;;;;5073532;28;20040;-19
2023/03/23 04:12:48;;;;;;;7.07;3.88;;;10.50;99.90;;;;;;5074168;28;20079;-19
2023/03/23 04:15:14;;;;;;;8.30;3.92;;;9.80;99.90;;;;;;5073450;28;20123;-19
2023/03/23 04:17:40;;;;;;;7.85;3.40;;;10.00;99.90;;;;;;5072765;28;20131;-18
2023/03/23 04:20:17;;;;;;;16.92;3.38;;;10.10;99.90;;;;;;5072490;28;20155;-19
2023/03/23 04:22:54;;;;;;;8.90;3.13;;;9.90;99.90;;;;;;5057452;28;20051;-19
2023/03/23 04:25:21;;;;;;;5.72;2.70;;;9.80;99.90;;;;;;5073699;28;20053;-20
2023/03/23 04:27:52;;;;;;;12.63;2.80;;;10.40;99.90;;;;;;5072397;28;20408;-20
2023/03/23 04:30:21;;;;;;;6.65;2.58;;;10.20;99.90;;;;;;5074022;28;20074;-20
2023/03/23 04:32:50;;;;;;;6.28;2.20;;;9.70;99.90;;;;;;5073358;28;20040;-20
2023/03/23 04:35:17;;;;;;;6.43;2.25;;;9.80;99.90;;;;;;5073349;28;20052;-19
2023/03/23 04:37:43;;;;;;;5.28;1.77;;;9.70;99.90;;;;;;5073576;28;20090;-19
2023/03/23 04:40:14;;;;;;;5.43;1.73;;;9.70;99.90;;;;;;5073060;28;20418;-20
2023/03/23 04:42:45;;;;;;;6.70;1.90;;;9.50;99.90;;;;;;5075051;28;20056;-20
2023/03/23 04:45:14;;;;;;;4.78;1.40;;;10.00;99.90;;;;;;5077639;28;20040;-20
2023/03/23 04:47:41;;;;;;;5.57;1.63;;;9.80;99.90;;;;;;5076844;28;20097;-20
2023/03/23 04:50:12;;;;;;;3.42;1.48;;;9.50;99.90;;;;;;5076217;28;20048;-20
2023/03/23 04:52:44;;;;;;;10.13;1.58;;;9.40;99.90;;;;;;5076922;28;20048;-20
2023/03/23 04:55:16;;;;;;;3.92;1.42;;;9.40;99.90;;;;;;5077457;28;20075;-20
2023/03/23 04:57:42;;;;;;;8.38;2.58;;;9.70;99.90;;;;;;5076819;28;20467;-20
2023/03/23 05:00:08;;;;;;;14.50;3.38;;;9.80;99.90;;;;;;5076024;28;20051;-20
2023/03/23 05:02:39;;;;;;;4.47;1.15;;;9.60;99.90;;;;;;5075750;28;20048;-20
2023/03/23 05:05:10;;;;;;;7.25;1.55;;;9.70;99.90;;;;;;5076595;28;20043;-20
2023/03/23 05:07:38;;;;;;;7.28;2.05;;;9.70;99.90;;;;;;5077127;28;20048;-20
2023/03/23 05:10:08;;;;;;;8.23;2.00;;;9.60;99.90;;;;;;5076524;28;20087;-20
2023/03/23 05:12:34;;;;;;;8.70;1.95;;;9.60;99.90;;;;;;5075532;28;20051;-20
2023/03/23 05:15:00;;;;;;;8.90;2.30;;;9.60;99.90;;;;;;5076441;28;20048;-20
2023/03/23 05:17:26;;;;;;;6.57;1.75;;;9.60;99.90;;;;;;5041941;28;20462;-20
2023/03/23 05:19:53;;;;;;;13.48;3.22;;;9.60;99.90;;;;;;5076674;28;20040;-20
2023/03/23 05:22:20;;;;;;;13.75;1.90;;;9.60;99.90;;;;;;5076068;28;20540;-20
2023/03/23 05:24:47;;;;;;;10.68;2.15;;;9.70;99.90;;;;;;5077117;28;20079;-22
2023/03/23 05:27:17;;;;;;;15.05;3.33;;;9.70;99.90;;;;;;5075926;28;20037;-23
2023/03/23 05:29:48;;;;;;;9.57;2.33;;;9.80;99.90;;;;;;5075381;28;20040;-22
2023/03/23 05:32:18;;;;;;;13.05;2.95;;;9.70;99.90;;;;;;5076439;28;20047;-22
2023/03/23 05:34:46;;;;;;;10.98;2.10;;;9.90;99.90;;;;;;5076165;28;20044;-22
2023/03/23 05:37:13;;;;;;;12.48;2.45;;;9.80;99.90;;;;;;5075351;28;20052;-22
2023/03/23 05:39:39;;;;;;;21.33;2.90;;;9.80;99.90;;;;;;5076075;28;20053;-22
2023/03/23 05:42:06;;;;;;;13.55;2.60;;;9.70;99.90;;;;;;5075825;28;20410;-22
2023/03/23 05:44:34;;;;;;;16.83;3.47;;;9.70;99.90;;;;;;5075904;28;20049;-22
2023/03/23 05:47:00;;;;;;;15.48;3.42;;;9.70;99.90;;;;;;5075762;28;20043;-22
2023/03/23 05:49:26;;;;;;;24.45;5.95;;;9.70;99.90;;;;;;5075839;28;20032;-22
2023/03/23 05:51:52;;;;;;;16.10;2.60;;;9.60;99.90;;;;;;5076349;28;20041;-22
2023/03/23 05:54:18;;;;;;;16.05;3.00;;;9.60;99.90;;;;;;5075226;28;20078;-23
2023/03/23 05:56:44;;;;;;;21.10;3.28;;;9.60;99.90;;;;;;5075395;28;20091;-22
2023/03/23 05:59:10;;;;;;;19.35;3.75;;;9.60;99.90;;;;;;5074469;28;20109;-23
2023/03/23 06:01:37;;;;;;;14.95;2.88;;;9.60;99.90;;;;;;5074499;28;20075;-23
2023/03/23 06:04:03;;;;;;;16.35;2.95;;;9.60;99.90;;;;;;5074891;28;20098;-22
2023/03/23 06:06:30;;;;;;;14.70;2.90;;;9.60;99.90;;;;;;5075457;28;20359;-23
2023/03/23 06:08:56;;;;;;;18.88;4.05;;;9.60;99.90;;;;;;5058309;28;20087;-22
2023/03/23 06:11:26;;;;;;;22.27;2.83;;;9.70;99.90;;;;;;5076181;28;20117;-23
2023/03/23 06:13:53;;;;;;;18.67;3.30;;;9.70;99.90;;;;;;5073865;28;20458;-23
2023/03/23 06:16:19;;;;;;;11.23;2.45;;;9.70;99.90;;;;;;5074129;28;20044;-23
2023/03/23 06:18:49;;;;;;;17.75;3.85;;;9.70;99.90;;;;;;5075210;28;20044;-23
2023/03/23 06:21:18;;;;;;;19.15;3.58;;;9.70;99.90;;;;;;5075345;28;20086;-24
2023/03/23 06:23:45;;;;;;;21.63;2.95;;;9.70;99.90;;;;;;5074158;28;20457;-23
2023/03/23 06:26:16;;;;;;;21.20;3.88;;;9.70;99.90;;;;;;5075606;28;20127;-23
2023/03/23 06:28:42;;;;;;;19.77;4.55;;;9.60;99.90;;;;;;5075385;28;20094;-23
2023/03/23 06:31:08;;;;;;;17.00;2.53;;;9.60;99.90;;;;;;5075525;28;20047;-23
2023/03/23 06:33:35;;;;;;;17.25;2.85;;;9.70;99.90;;;;;;5075009;28;20076;-24
2023/03/23 06:36:02;;;;;;;13.50;2.33;;;9.60;99.90;;;;;;5074894;28;20037;-23
2023/03/23 06:38:28;;;;;;;10.40;1.92;;;9.70;99.90;;;;;;5074671;28;20048;-23
2023/03/23 06:40:54;;;;;;;14.48;2.95;;;9.70;99.90;;;;;;5074437;28;20486;-23
2023/03/23 06:43:20;;;;;;;11.38;2.15;;;9.80;99.90;;;;;;5074067;28;20059;-24
2023/03/23 06:45:46;;;;;;;11.48;2.50;;;9.80;99.90;;;;;;5074978;28;20044;-23
2023/03/23 06:48:12;;;;;;;8.40;1.30;;;9.60;99.90;;;;;;5074592;28;20036;-23
2023/03/23 06:50:38;;;;;;;9.93;1.65;;;9.70;99.90;;;;;;5074664;28;20045;-23
2023/03/23 06:53:04;;;;;;;9.27;1.30;;;9.60;99.90;;;;;;5074838;28;20048;-24
2023/03/23 06:55:30;;;;;;;9.45;1.50;;;9.60;99.90;;;;;;5073394;28;20044;-24
2023/03/23 06:57:58;;;;;;;7.72;1.50;;;9.60;99.90;;;;;;5074390;28;20033;-24
2023/03/23 07:00:25;;;;;;;8.05;1.60;;;9.70;99.90;;;;;;5074395;28;20115;-24
2023/03/23 07:02:51;;;;;;;10.63;1.55;;;9.70;99.90;;;;;;5074249;28;20044;-24
2023/03/23 07:05:17;;;;;;;9.75;2.58;;;9.70;99.90;;;;;;5056645;28;20131;-24
2023/03/23 07:07:43;;;;;;;11.93;1.98;;;9.70;99.90;;;;;;5074108;28;20047;-24
2023/03/23 07:10:10;;;;;;;11.90;2.20;;;9.80;99.90;;;;;;5073802;28;20458;-24
2023/03/23 07:12:36;;;;;;;16.00;2.38;;;9.90;99.90;;;;;;5074194;28;20049;-24
2023/03/23 07:15:03;;;;;;;13.55;3.05;;;9.90;99.90;;;;;;5072958;28;20119;-24
2023/03/23 07:17:29;;;;;;;11.30;2.63;;;9.90;99.90;;;;;;5074657;28;20094;-25
2023/03/23 07:19:56;;;;;;;23.13;2.97;;;9.90;99.90;;;;;;5073203;28;20052;-24
2023/03/23 07:22:22;;;;;;;12.43;2.83;;;10.00;99.90;;;;;;5072845;28;20044;-25
2023/03/23 07:24:48;;;;;;;17.80;3.63;;;10.00;99.90;;;;;;5073988;28;20047;-25
2023/03/23 07:27:14;;;;;;;15.95;2.42;;;10.00;99.90;;;;;;5074488;28;20037;-25
2023/03/23 07:29:42;;;;;;;14.13;2.92;;;10.10;99.90;;;;;;5072954;28;20044;-25
2023/03/23 07:32:14;;;;;;;17.58;3.33;;;10.20;99.90;;;;;;5074171;28;20475;-24
2023/03/23 07:34:41;;;;;;;28.67;5.30;;;10.30;99.90;;;;;;5073936;28;20097;-24
2023/03/23 07:37:07;;;;;;;17.92;3.42;;;10.20;99.90;;;;;;5073152;28;20123;-24
2023/03/23 07:39:33;;;;;;;28.25;4.65;;;10.20;99.90;;;;;;5073701;28;20036;-24
2023/03/23 07:42:00;;;;;;;26.55;5.20;;;10.30;99.90;;;;;;5074940;28;20057;-24
2023/03/23 07:44:26;;;;;;;24.30;3.90;;;10.50;99.90;;;;;;5072613;28;20061;-24
2023/03/23 07:46:52;;;;;;;20.95;3.85;;;10.50;99.90;;;;;;5073657;28;20471;-24
2023/03/23 07:49:20;;;;;;;24.30;4.80;;;10.60;99.90;;;;;;5072562;28;20040;-24
2023/03/23 07:51:47;;;;;;;20.92;4.80;;;10.60;99.90;;;;;;5073711;28;20082;-24
2023/03/23 07:54:14;;;;;;;24.08;4.07;;;10.70;99.90;;;;;;5072485;28;20041;-24
2023/03/23 07:56:40;;;;;;;22.05;5.72;;;10.70;99.90;;;;;;5073346;28;20426;-24
2023/03/23 07:59:06;;;;;;;20.88;3.42;;;10.70;99.90;;;;;;5073665;28;20040;-25
2023/03/23 08:01:32;;;;;;;26.10;4.38;;;10.80;99.90;;;;;;5072434;28;20050;-25
2023/03/23 08:03:59;;;;;;;29.85;4.60;;;10.80;99.90;;;;;;5073562;28;20471;-24
2023/03/23 08:06:25;;;;;;;30.35;6.20;;;10.70;99.90;;;;;;5074298;28;20106;-25
2023/03/23 08:08:52;;;;;;;29.42;4.60;;;10.70;99.90;;;;;;5073523;28;20124;-25
2023/03/23 08:11:19;;;;;;;25.00;4.32;;;10.80;99.90;;;;;;5074367;28;20047;-25
2023/03/23 08:13:46;;;;;;;26.05;4.43;;;10.80;99.90;;;;;;5071964;28;20440;-25
2023/03/23 08:16:13;;;;;;;18.20;3.55;;;10.80;99.90;;;;;;5073488;28;20048;-25
2023/03/23 08:18:39;;;;;;;27.35;5.90;;;10.90;99.90;;;;;;5077014;28;20040;-25
2023/03/23 08:21:08;;;;;;;34.38;5.03;;;11.00;99.90;;;;;;5077528;28;20044;-25
2023/03/23 08:23:36;;;;;;;31.20;5.13;;;11.00;99.90;;;;;;5077458;28;20462;-25
2023/03/23 08:26:06;;;;;;;20.67;4.60;;;11.00;99.90;;;;;;5078221;28;20051;-25
2023/03/23 08:28:32;;;;;;;26.98;5.13;;;11.00;99.90;;;;;;5077389;28;20040;-26
2023/03/23 08:30:58;;;;;;;19.67;3.55;;;10.90;99.90;;;;;;5077329;28;20040;-26
2023/03/23 08:33:24;;;;;;;23.13;3.97;;;10.90;99.90;;;;;;5077273;28;20040;-26
2023/03/23 08:35:58;;;;;;;25.92;4.78;;;11.00;99.90;;;;;;5059613;28;20036;-26
2023/03/23 08:38:24;;;;;;;29.77;4.38;;;11.00;99.90;;;;;;5077195;28;20097;-26
2023/03/23 08:40:51;;;;;;;27.42;5.20;;;11.00;99.90;;;;;;5075583;28;20405;-27
2023/03/23 08:43:17;;;;;;;30.30;4.72;;;11.20;99.90;;;;;;5077587;28;20467;-27
2023/03/23 08:45:43;;;;;;;32.90;4.45;;;11.20;99.90;;;;;;5075832;28;20045;-27
2023/03/23 08:48:10;;;;;;;28.63;4.45;;;11.30;99.90;;;;;;5076922;28;20037;-27
2023/03/23 08:50:36;;;;;;;20.15;3.95;;;11.40;99.90;;;;;;5076963;28;20398;-27
2023/03/23 08:53:02;;;;;;;16.58;4.40;;;11.40;99.90;;;;;;5076899;28;20044;-28
2023/03/23 08:55:31;;;;;;;28.30;4.43;;;11.50;99.90;;;;;;5076855;28;20553;-28
2023/03/23 08:57:57;;;;;;;23.73;3.85;;;11.40;99.90;;;;;;5076755;28;20032;-27
2023/03/23 09:00:25;;;;;;;26.65;4.30;;;11.50;99.90;;;;;;5075447;28;20121;-27
2023/03/23 09:02:53;;;;;;;28.60;5.45;;;11.70;99.90;;;;;;5075737;28;20044;-27
2023/03/23 09:05:21;;;;;;;26.95;5.82;;;11.70;99.90;;;;;;5076633;28;20047;-29
2023/03/23 09:07:50;;;;;;;26.60;5.30;;;11.70;99.90;;;;;;5077092;28;20101;-28
2023/03/23 09:10:16;;;;;;;20.65;3.97;;;11.70;99.90;;;;;;5076579;28;20079;-28
2023/03/23 09:12:43;;;;;;;26.08;4.68;;;11.70;99.90;;;;;;5076479;28;20201;-28
2023/03/23 09:15:12;;;;;;;17.70;3.80;;;11.70;99.90;;;;;;5076449;28;20123;-28
2023/03/23 09:17:41;;;;;;;26.98;4.07;;;11.70;99.90;;;;;;5076975;28;20359;-28
2023/03/23 09:20:11;;;;;;;20.73;4.40;;;11.90;99.90;;;;;;5076082;28;20488;-28
2023/03/23 09:22:44;;;;;;;23.23;4.70;;;12.20;99.90;;;;;;5076983;28;20074;-28
2023/03/23 09:25:12;;;;;;;29.83;5.70;;;12.30;99.90;;;;;;5076292;28;20612;-29
2023/03/23 09:27:39;;;;;;;25.08;5.80;;;12.10;99.90;;;;;;5075767;28;20051;-29
2023/03/23 09:30:11;;;;;;;31.70;4.97;;;12.00;99.90;;;;;;5076190;28;20463;-28
2023/03/23 09:32:38;;;;;;;20.40;3.75;;;11.90;99.90;;;;;;5076221;28;20125;-28
2023/03/23 09:35:11;;;;;;;24.30;4.95;;;11.80;99.90;;;;;;5076052;28;20052;-30
2023/03/23 09:37:38;;;;;;;18.48;3.03;;;12.10;99.90;;;;;;5076173;28;20072;-28
2023/03/23 09:40:06;;;;;;;19.98;4.00;;;12.00;99.90;;;;;;5074765;28;20463;-29
2023/03/23 09:43:03;;;;;;;21.73;5.93;;;12.20;99.90;;;;;;5075842;28;20048;-29
2023/03/23 09:46:01;;;;;;;24.25;4.88;;;12.30;99.90;;;;;;5076048;28;20052;-29
2023/03/23 09:48:46;;;;;;;24.73;4.78;;;12.70;99.90;;;;;;5074818;28;20192;-29
2023/03/23 09:51:41;;;;;;;20.80;4.03;;;12.50;99.90;;;;;;5075699;28;20462;-29
2023/03/23 09:54:31;;;;;;;23.88;4.32;;;12.30;99.90;;;;;;5075763;28;20048;-30
2023/03/23 09:56:59;;;;;;;27.00;4.32;;;12.40;99.90;;;;;;5058113;28;20074;-30
2023/03/23 09:59:30;;;;;;;23.77;4.88;;;13.10;99.90;;;;;;5075690;28;20099;-31
2023/03/23 10:02:18;;;;;;;29.92;4.53;;;13.70;99.90;;;;;;5076310;28;20127;-30
2023/03/23 10:04:56;;;;;;;23.27;4.18;;;14.00;99.90;;;;;;5076493;28;20366;-30
2023/03/23 10:07:25;;;;;;;23.02;4.10;;;13.50;99.90;;;;;;5076351;28;20457;-32
2023/03/23 10:09:57;;;;;;;18.02;3.58;;;13.50;99.90;;;;;;5076287;28;20098;-32
2023/03/23 10:12:42;;;;;;;18.27;3.78;;;13.60;99.90;;;;;;5075329;28;20074;-32
2023/03/23 10:15:16;;;;;;;28.65;5.53;;;13.60;99.90;;;;;;5075154;28;20470;-31
2023/03/23 10:18:08;;;;;;;20.00;3.70;;;14.00;99.90;;;;;;5074738;28;20036;-32
2023/03/23 10:20:46;;;;;;;13.57;3.43;;;14.10;99.90;;;;;;5076159;28;20048;-33
2023/03/23 10:23:42;;;;;;;17.90;3.80;;;14.10;99.90;;;;;;5076073;28;20045;-33
2023/03/23 10:26:29;;;;;;;16.42;3.30;;;13.80;99.90;;;;;;5075401;28;20048;-31
2023/03/23 10:29:01;;;;;;;17.15;3.10;;;13.70;99.90;;;;;;5075452;28;20099;-31
2023/03/23 10:31:35;;;;;;;19.42;3.47;;;13.70;99.90;;;;;;5075912;28;20047;-32
2023/03/23 10:34:23;;;;;;;17.00;3.22;;;13.50;99.90;;;;;;5074334;28;20091;-32
2023/03/23 10:37:13;;;;;;;17.60;4.03;;;13.30;99.90;;;;;;5073730;28;20097;-33
2023/03/23 10:39:52;;;;;;;22.55;4.72;;;12.80;99.90;;;;;;5074034;28;20041;-32
2023/03/23 10:42:26;;;;;;;26.80;4.78;;;12.60;99.90;;;;;;5074670;28;20432;-32
2023/03/23 10:44:53;;;;;;;21.08;2.92;;;12.70;99.90;;;;;;5074396;28;20528;-32
2023/03/23 10:47:19;;;;;;;22.60;4.07;;;13.10;99.90;;;;;;5074582;28;20044;-32
2023/03/23 10:50:06;;;;;;;17.70;4.57;;;13.50;99.90;;;;;;5074703;28;20114;-32
2023/03/23 10:52:35;;;;;;;15.15;3.55;;;13.50;99.90;;;;;;5074729;28;20052;-33
2023/03/23 10:55:06;;;;;;;14.50;3.53;;;13.30;99.90;;;;;;5074614;28;20127;-33
2023/03/23 10:57:35;;;;;;;28.67;5.20;;;12.70;99.90;;;;;;5074442;28;20037;-34
2023/03/23 11:00:07;;;;;;;16.13;3.72;;;12.40;99.90;;;;;;5074459;28;20048;-32
2023/03/23 11:02:40;;;;;;;14.20;3.53;;;12.40;99.90;;;;;;5073555;28;20467;-33
2023/03/23 11:05:23;;;;;;;19.92;3.55;;;12.80;99.90;;;;;;5075166;28;20363;-33
2023/03/23 11:07:57;;;;;;;18.17;3.00;;;12.90;99.90;;;;;;5074226;28;20459;-33
2023/03/23 11:10:34;;;;;;;22.30;2.63;;;12.90;99.90;;;;;;5074244;28;20047;-33
2023/03/23 11:13:00;;;;;;;24.38;4.15;;;12.70;99.90;;;;;;5073423;28;20052;-33
2023/03/23 11:15:40;;;;;;;19.30;4.45;;;13.10;99.90;;;;;;5074528;28;20051;-33
2023/03/23 11:18:10;;;;;;;10.88;2.65;;;14.20;99.90;;;;;;5074119;28;20036;-33
2023/03/23 11:20:43;;;;;;;13.90;2.78;;;14.30;99.90;;;;;;5074125;28;20393;-34
2023/03/23 11:23:22;;;;;;;16.08;3.45;;;14.60;99.90;;;;;;5074168;28;20128;-34
2023/03/23 11:26:10;;;;;;;11.30;2.40;;;15.10;99.90;;;;;;5073339;28;20048;-34
2023/03/23 11:28:42;;;;;;;13.60;2.75;;;15.10;99.90;;;;;;5074524;28;20118;-33
2023/03/23 11:31:08;;;;;;;13.93;3.05;;;14.80;99.90;;;;;;5073939;28;20040;-34
2023/03/23 11:33:58;;;;;;;9.85;2.33;;;14.90;99.90;;;;;;5073901;28;20047;-33
2023/03/23 11:36:40;;;;;;;10.20;2.75;;;14.80;99.90;;;;;;5074456;28;20080;-35
2023/03/23 11:39:30;;;;;;;13.95;2.83;;;15.00;99.90;;;;;;5073797;28;20052;-35
2023/03/23 11:41:59;;;;;;;15.00;2.80;;;14.80;99.90;;;;;;5072496;28;20478;-33
2023/03/23 11:44:34;;;;;;;19.90;2.95;;;14.90;99.90;;;;;;5073794;28;20041;-33
2023/03/23 11:47:17;;;;;;;12.73;2.92;;;14.30;99.90;;;;;;5072991;28;20429;-34
2023/03/23 11:50:18;;;;;;;14.50;2.90;;;14.50;99.90;;;;;;5073781;28;20478;-34
2023/03/23 11:53:11;;;;;;;19.60;3.90;;;14.80;99.90;;;;;;5073562;28;20066;-34
2023/03/23 11:55:50;;;;;;;17.05;4.25;;;15.00;99.90;;;;;;5074028;28;20044;-34
2023/03/23 11:58:18;;;;;;;10.00;2.47;;;15.40;99.90;;;;;;5073657;28;20048;-34
2023/03/23 12:00:57;;;;;;;16.80;3.03;;;15.60;99.90;;;;;;5073584;28;20047;-34
2023/03/23 12:03:41;;;;;;;11.32;2.20;;;15.80;99.90;;;;;;5074226;28;20051;-34
2023/03/23 12:06:10;;;;;;;12.90;2.90;;;15.70;99.90;;;;;;5073681;28;20044;-35
2023/03/23 12:08:58;;;;;;;9.73;2.28;;;15.70;99.90;;;;;;5072076;28;20127;-34
2023/03/23 12:11:27;;;;;;;11.65;2.63;;;15.80;99.90;;;;;;5073359;28;20135;-33
2023/03/23 12:13:55;;;;;;;17.77;2.90;;;15.40;99.90;;;;;;5073237;28;20051;-35
2023/03/23 12:16:50;;;;;;;6.55;2.25;;;15.40;99.90;;;;;;5073316;28;20059;-34
2023/03/23 12:19:17;;;;;;;9.25;1.90;;;15.20;99.90;;;;;;5072543;28;20057;-33
2023/03/23 12:22:17;;;;;;;11.40;2.22;;;15.30;99.90;;;;;;5072970;28;20521;-35
2023/03/23 12:24:50;;;;;;;14.63;2.67;;;15.30;99.90;;;;;;5073232;28;20040;-33
2023/03/23 12:27:26;;;;;;;13.00;2.63;;;15.30;99.90;;;;;;5072546;28;20050;-35
2023/03/23 12:30:03;;;;;;;11.05;2.13;;;15.10;99.90;;;;;;5073294;28;20174;-32
2023/03/23 12:32:45;;;;;;;15.43;2.97;;;14.90;99.90;;;;;;5072871;28;20490;-32
2023/03/23 12:35:21;;;;;;;9.98;1.90;;;14.90;99.90;;;;;;5073172;28;20048;-34
2023/03/23 12:38:00;;;;;;;15.73;3.45;;;15.00;99.90;;;;;;5072816;28;20432;-33
2023/03/23 12:40:35;;;;;;;12.02;2.17;;;14.70;99.90;;;;;;5073404;28;20040;-33
2023/03/23 12:43:10;;;;;;;15.18;2.85;;;14.30;99.90;;;;;;5073068;28;20509;-33
2023/03/23 12:46:00;;;;;;;15.90;3.10;;;14.00;99.90;;;;;;5073142;28;20120;-32
2023/03/23 12:49:01;;;;;;;13.15;2.67;;;13.90;99.90;;;;;;5073575;28;20047;-33
2023/03/23 12:51:33;;;;;;;12.70;2.90;;;14.20;99.90;;;;;;5071542;28;20394;-32
2023/03/23 12:54:27;;;;;;;11.82;2.78;;;14.30;99.90;;;;;;5072906;28;20071;-35
2023/03/23 12:57:15;;;;;;;18.65;3.03;;;14.40;99.90;;;;;;5072783;28;20390;-33
2023/03/23 13:00:18;;;;;;;10.80;2.03;;;14.00;99.90;;;;;;5073916;28;20441;-32
2023/03/23 13:02:51;;;;;;;12.13;2.55;;;13.80;99.90;;;;;;5055870;28;20083;-32